Time;durP1;ratioP1;P1;durP2;ratioP2;P2;SDS_P1;SDS_P2;PMS_P1;PMS_P2;Temp;Humidity;BMP_temperature;BMP_pressure;BME280_temperature;BME280_humidity;BME280_pressure;Samples;Min_cycle;Max_cycle;Signal;HPM_P1;HPM_P2
2022/11/30 00:01:17;;;;;;;11.98;6.97;;;;;;;;;;4991410;28;20046;-73
2022/11/30 00:03:45;;;;;;;12.23;7.15;;;;;;;;;;4992647;28;20095;-71
2022/11/30 00:06:14;;;;;;;14.63;8.07;;;;;;;;;;4992582;28;20043;-72
2022/11/30 00:08:41;;;;;;;11.20;6.50;;;;;;;;;;4992551;28;20127;-71
2022/11/30 00:11:09;;;;;;;14.25;8.95;;;;;;;;;;4992660;28;20043;-71
2022/11/30 00:13:36;;;;;;;15.10;8.30;;;;;;;;;;4991397;28;20045;-71
2022/11/30 00:16:04;;;;;;;14.10;8.55;;;;;;;;;;4992464;28;20039;-71
2022/11/30 00:18:31;;;;;;;15.52;8.45;;;;;;;;;;4992605;28;20159;-71
2022/11/30 00:21:00;;;;;;;13.98;7.47;;;;;;;;;;4992736;28;20404;-71
2022/11/30 00:23:31;;;;;;;15.02;9.18;;;;;;;;;;4992345;28;20408;-71
2022/11/30 00:26:03;;;;;;;13.65;7.60;;;;;;;;;;4992394;28;20042;-71
2022/11/30 00:28:31;;;;;;;16.88;8.55;;;;;;;;;;4992434;28;20047;-71
2022/11/30 00:30:59;;;;;;;15.07;8.13;;;;;;;;;;4992306;28;20066;-71
2022/11/30 00:33:27;;;;;;;14.70;8.88;;;;;;;;;;4992311;28;20042;-72
2022/11/30 00:35:55;;;;;;;16.50;9.02;;;;;;;;;;4991092;28;20448;-71
2022/11/30 00:38:23;;;;;;;14.90;8.50;;;;;;;;;;4992159;28;20038;-72
2022/11/30 00:40:51;;;;;;;17.70;9.85;;;;;;;;;;4990823;28;20054;-71
2022/11/30 00:43:18;;;;;;;16.85;8.60;;;;;;;;;;4991986;28;20084;-71
2022/11/30 00:45:46;;;;;;;15.25;8.45;;;;;;;;;;4991983;28;20046;-71
2022/11/30 00:48:13;;;;;;;17.40;9.32;;;;;;;;;;4991962;28;20076;-71
2022/11/30 00:50:41;;;;;;;16.65;10.00;;;;;;;;;;4992024;28;20077;-71
2022/11/30 00:53:08;;;;;;;17.20;9.82;;;;;;;;;;4991930;28;20034;-72
2022/11/30 00:55:36;;;;;;;15.20;9.18;;;;;;;;;;4991418;28;20077;-71
2022/11/30 00:58:05;;;;;;;17.95;9.27;;;;;;;;;;4992051;28;20091;-71
2022/11/30 01:00:33;;;;;;;16.38;8.98;;;;;;;;;;4991729;28;20054;-71
2022/11/30 01:03:01;;;;;;;17.65;9.65;;;;;;;;;;4990652;28;20049;-71
2022/11/30 01:05:29;;;;;;;14.55;8.50;;;;;;;;;;4991631;28;20054;-71
2022/11/30 01:07:59;;;;;;;16.38;9.50;;;;;;;;;;4991790;28;20034;-72
2022/11/30 01:10:26;;;;;;;19.80;9.68;;;;;;;;;;4992109;28;20053;-71
2022/11/30 01:12:54;;;;;;;19.10;9.50;;;;;;;;;;4990538;28;20092;-71
2022/11/30 01:15:21;;;;;;;18.15;10.35;;;;;;;;;;4991589;28;20051;-71
2022/11/30 01:17:49;;;;;;;15.57;8.82;;;;;;;;;;4991499;28;20095;-71
2022/11/30 01:20:16;;;;;;;15.68;8.20;;;;;;;;;;4991654;28;20039;-71
2022/11/30 01:22:44;;;;;;;15.48;8.82;;;;;;;;;;4991236;28;20046;-71
2022/11/30 01:25:11;;;;;;;18.38;9.70;;;;;;;;;;4991539;28;20050;-71
2022/11/30 01:27:40;;;;;;;17.92;11.40;;;;;;;;;;4991500;28;20039;-72
2022/11/30 01:30:07;;;;;;;16.10;8.98;;;;;;;;;;4991516;28;20039;-71
2022/11/30 01:32:35;;;;;;;18.70;10.05;;;;;;;;;;4991322;28;20052;-71
2022/11/30 01:35:02;;;;;;;18.05;9.27;;;;;;;;;;4991360;28;20172;-71
2022/11/30 01:37:30;;;;;;;18.67;10.27;;;;;;;;;;4991238;28;20046;-71
2022/11/30 01:39:57;;;;;;;21.67;11.15;;;;;;;;;;4991586;28;20506;-71
2022/11/30 01:42:25;;;;;;;18.90;8.93;;;;;;;;;;4991236;28;20034;-71
2022/11/30 01:44:55;;;;;;;19.23;9.77;;;;;;;;;;4991053;28;20121;-71
2022/11/30 01:47:25;;;;;;;18.70;9.02;;;;;;;;;;4991148;28;20038;-72
2022/11/30 01:49:56;;;;;;;21.05;10.35;;;;;;;;;;4991032;28;20091;-71
2022/11/30 01:52:28;;;;;;;19.52;10.18;;;;;;;;;;4991164;28;20050;-71
2022/11/30 01:55:00;;;;;;;19.42;10.15;;;;;;;;;;4990875;28;20042;-71
2022/11/30 01:57:38;;;;;;;19.48;10.82;;;;;;;;;;4991013;28;20075;-71
2022/11/30 02:00:08;;;;;;;20.42;10.55;;;;;;;;;;4989579;28;20050;-71
2022/11/30 02:03:02;;;;;;;20.98;10.77;;;;;;;;;;4991037;28;20053;-71
2022/11/30 02:05:31;;;;;;;22.83;11.02;;;;;;;;;;4990447;28;20039;-71
2022/11/30 02:07:58;;;;;;;21.33;10.43;;;;;;;;;;4989639;28;20068;-72
2022/11/30 02:10:27;;;;;;;19.42;9.95;;;;;;;;;;4990875;28;20038;-71
2022/11/30 02:12:55;;;;;;;16.55;8.50;;;;;;;;;;4990858;28;20492;-71
2022/11/30 02:15:24;;;;;;;20.60;9.93;;;;;;;;;;4989533;28;20515;-71
2022/11/30 02:17:52;;;;;;;19.35;10.32;;;;;;;;;;4990850;28;20046;-71
2022/11/30 02:20:31;;;;;;;19.30;10.88;;;;;;;;;;4990823;28;20092;-71
2022/11/30 02:23:08;;;;;;;19.75;10.80;;;;;;;;;;4990536;28;20082;-71
2022/11/30 02:26:04;;;;;;;21.35;10.88;;;;;;;;;;4990870;28;20043;-71
2022/11/30 02:28:51;;;;;;;19.13;10.35;;;;;;;;;;4997509;28;20050;-71
2022/11/30 02:31:20;;;;;;;23.52;12.00;;;;;;;;;;4990643;28;20054;-71
2022/11/30 02:33:50;;;;;;;20.27;11.43;;;;;;;;;;4989420;28;20042;-70
2022/11/30 02:36:18;;;;;;;21.80;11.68;;;;;;;;;;4990456;28;20122;-71
2022/11/30 02:38:46;;;;;;;22.20;11.95;;;;;;;;;;4990539;28;20130;-71
2022/11/30 02:41:13;;;;;;;22.73;11.18;;;;;;;;;;4990450;28;20050;-71
2022/11/30 02:43:41;;;;;;;19.52;10.45;;;;;;;;;;4973204;28;20125;-71
2022/11/30 02:46:18;;;;;;;25.15;12.52;;;;;;;;;;4990258;28;20438;-71
2022/11/30 02:48:49;;;;;;;20.70;11.32;;;;;;;;;;4989342;28;20447;-71
2022/11/30 02:51:18;;;;;;;22.98;11.80;;;;;;;;;;4990150;28;20133;-71
2022/11/30 02:53:46;;;;;;;22.05;11.63;;;;;;;;;;4990227;28;20107;-71
2022/11/30 02:56:14;;;;;;;20.60;10.57;;;;;;;;;;4988733;28;20568;-71
2022/11/30 02:58:41;;;;;;;22.80;11.73;;;;;;;;;;4990401;28;20070;-71
2022/11/30 03:01:09;;;;;;;22.73;11.77;;;;;;;;;;4990134;28;20047;-72
2022/11/30 03:03:37;;;;;;;22.10;11.55;;;;;;;;;;4990117;28;20043;-71
2022/11/30 03:06:04;;;;;;;23.17;11.63;;;;;;;;;;4990001;28;20049;-71
2022/11/30 03:08:32;;;;;;;21.30;11.45;;;;;;;;;;4989943;28;20092;-72
2022/11/30 03:11:03;;;;;;;23.17;10.18;;;;;;;;;;4990119;28;20038;-72
2022/11/30 03:13:31;;;;;;;21.55;11.20;;;;;;;;;;4989110;28;20392;-72
2022/11/30 03:16:04;;;;;;;19.77;11.07;;;;;;;;;;4988687;28;20046;-71
2022/11/30 03:18:32;;;;;;;17.00;9.50;;;;;;;;;;4992806;28;20047;-71
2022/11/30 03:21:00;;;;;;;18.40;9.30;;;;;;;;;;4992062;28;20491;-71
2022/11/30 03:23:28;;;;;;;19.83;10.15;;;;;;;;;;4993295;28;20051;-71
2022/11/30 03:25:59;;;;;;;21.60;10.93;;;;;;;;;;4999161;28;20038;-71
2022/11/30 03:28:26;;;;;;;20.30;10.80;;;;;;;;;;4993267;28;20039;-71
2022/11/30 03:30:54;;;;;;;19.83;10.20;;;;;;;;;;4993389;28;20091;-71
2022/11/30 03:33:21;;;;;;;20.40;9.73;;;;;;;;;;4993198;28;20450;-71
2022/11/30 03:35:57;;;;;;;20.08;10.45;;;;;;;;;;4993159;28;20047;-71
2022/11/30 03:38:24;;;;;;;19.80;10.85;;;;;;;;;;4993058;28;20038;-71
2022/11/30 03:40:58;;;;;;;20.58;10.65;;;;;;;;;;4991933;28;20053;-71
2022/11/30 03:43:26;;;;;;;19.00;10.60;;;;;;;;;;4993280;28;20043;-71
2022/11/30 03:45:53;;;;;;;21.30;11.13;;;;;;;;;;4993151;28;20046;-71
2022/11/30 03:48:21;;;;;;;19.50;10.85;;;;;;;;;;4992870;28;20070;-71
2022/11/30 03:50:49;;;;;;;17.98;9.45;;;;;;;;;;4993332;28;20054;-71
2022/11/30 03:53:20;;;;;;;19.20;9.75;;;;;;;;;;4992771;28;20074;-71
2022/11/30 03:55:52;;;;;;;16.10;9.02;;;;;;;;;;4992780;28;20430;-71
2022/11/30 03:58:19;;;;;;;18.20;9.77;;;;;;;;;;4993100;28;20050;-71
2022/11/30 04:00:47;;;;;;;17.20;9.68;;;;;;;;;;4975611;28;20095;-71
2022/11/30 04:03:15;;;;;;;18.65;9.13;;;;;;;;;;4992703;28;20050;-71
2022/11/30 04:05:42;;;;;;;19.25;10.70;;;;;;;;;;4992671;28;20128;-71
2022/11/30 04:08:10;;;;;;;15.27;8.52;;;;;;;;;;4992456;28;20051;-71
2022/11/30 04:10:37;;;;;;;18.02;9.52;;;;;;;;;;4992942;28;20042;-71
2022/11/30 04:13:05;;;;;;;16.10;8.88;;;;;;;;;;4992479;28;20051;-71
2022/11/30 04:15:32;;;;;;;16.83;10.27;;;;;;;;;;4992493;28;20381;-71
2022/11/30 04:18:00;;;;;;;16.67;9.23;;;;;;;;;;4992395;28;20065;-71
2022/11/30 04:20:27;;;;;;;15.60;9.52;;;;;;;;;;4992258;28;20060;-71
2022/11/30 04:22:56;;;;;;;15.23;9.05;;;;;;;;;;4992319;28;20682;-71
2022/11/30 04:25:24;;;;;;;16.23;8.13;;;;;;;;;;4992270;28;20034;-72
2022/11/30 04:27:51;;;;;;;14.70;8.07;;;;;;;;;;4992342;28;20500;-71
2022/11/30 04:30:19;;;;;;;11.88;6.93;;;;;;;;;;4991610;28;20039;-71
2022/11/30 04:32:46;;;;;;;14.15;8.00;;;;;;;;;;5074182;28;20094;-71
2022/11/30 04:35:14;;;;;;;14.48;7.75;;;;;;;;;;5094825;28;20542;-72
2022/11/30 04:37:42;;;;;;;12.93;7.00;;;;;;;;;;5095061;28;20449;-71
2022/11/30 04:40:10;;;;;;;13.23;7.03;;;;;;;;;;5094650;28;20046;-71
2022/11/30 04:42:37;;;;;;;12.95;6.53;;;;;;;;;;5094524;28;20047;-71
2022/11/30 04:45:05;;;;;;;12.20;6.97;;;;;;;;;;5094560;28;20074;-72
2022/11/30 04:47:32;;;;;;;15.13;8.25;;;;;;;;;;5094380;28;20040;-72
2022/11/30 04:50:00;;;;;;;12.25;6.88;;;;;;;;;;5093240;28;20517;-73
2022/11/30 04:52:27;;;;;;;13.80;7.45;;;;;;;;;;5094381;28;20073;-74
2022/11/30 04:54:55;;;;;;;12.82;7.05;;;;;;;;;;5094335;28;20478;-73
2022/11/30 04:57:23;;;;;;;14.65;7.78;;;;;;;;;;5094298;28;20080;-73
2022/11/30 04:59:51;;;;;;;13.90;7.25;;;;;;;;;;5094269;28;20482;-73
2022/11/30 05:02:18;;;;;;;13.25;7.40;;;;;;;;;;5094597;28;20105;-73
2022/11/30 05:04:46;;;;;;;11.95;7.10;;;;;;;;;;5094113;28;20050;-73
2022/11/30 05:07:14;;;;;;;12.73;6.68;;;;;;;;;;5094056;28;20109;-72
2022/11/30 05:09:41;;;;;;;12.95;7.18;;;;;;;;;;5094000;28;20123;-72
2022/11/30 05:12:09;;;;;;;13.25;7.60;;;;;;;;;;5094218;28;20071;-73
2022/11/30 05:14:36;;;;;;;14.25;8.20;;;;;;;;;;5094136;28;20043;-73
2022/11/30 05:17:03;;;;;;;12.98;7.68;;;;;;;;;;5094018;28;20044;-73
2022/11/30 05:19:31;;;;;;;14.38;7.82;;;;;;;;;;5093553;28;20037;-72
2022/11/30 05:21:58;;;;;;;13.60;7.47;;;;;;;;;;5093898;28;20043;-72
2022/11/30 05:24:26;;;;;;;14.23;6.90;;;;;;;;;;5092388;28;20044;-72
2022/11/30 05:26:53;;;;;;;14.60;7.15;;;;;;;;;;5093526;28;20040;-72
2022/11/30 05:29:21;;;;;;;14.70;7.10;;;;;;;;;;5093404;28;20047;-73
2022/11/30 05:31:48;;;;;;;16.70;8.13;;;;;;;;;;5093529;28;20054;-74
2022/11/30 05:34:16;;;;;;;12.60;6.85;;;;;;;;;;5093435;28;20048;-74
2022/11/30 05:36:43;;;;;;;14.50;7.35;;;;;;;;;;5093945;28;20500;-73
2022/11/30 05:39:10;;;;;;;13.65;8.00;;;;;;;;;;5093401;28;20493;-74
2022/11/30 05:41:38;;;;;;;13.63;7.78;;;;;;;;;;5091514;28;20060;-74
2022/11/30 05:44:05;;;;;;;14.93;7.50;;;;;;;;;;5091516;28;20067;-74
2022/11/30 05:46:33;;;;;;;13.80;7.55;;;;;;;;;;5091511;28;20444;-74
2022/11/30 05:49:07;;;;;;;13.80;7.72;;;;;;;;;;5091829;28;20044;-74
2022/11/30 05:51:34;;;;;;;11.63;7.05;;;;;;;;;;5091784;28;20119;-74
2022/11/30 05:54:02;;;;;;;13.05;7.03;;;;;;;;;;5091911;28;20042;-73
2022/11/30 05:56:29;;;;;;;13.38;7.05;;;;;;;;;;5092100;28;20063;-73
2022/11/30 05:58:57;;;;;;;13.60;7.13;;;;;;;;;;5091991;28;20069;-74
2022/11/30 06:01:25;;;;;;;10.35;6.28;;;;;;;;;;5092931;28;20062;-73
2022/11/30 06:03:53;;;;;;;14.93;7.75;;;;;;;;;;5091813;28;20056;-74
2022/11/30 06:06:21;;;;;;;11.80;7.18;;;;;;;;;;5093077;28;20043;-73
2022/11/30 06:08:49;;;;;;;11.13;7.43;;;;;;;;;;5093105;28;20090;-73
2022/11/30 06:11:17;;;;;;;11.38;6.88;;;;;;;;;;5093028;28;20050;-72
2022/11/30 06:13:44;;;;;;;12.82;6.57;;;;;;;;;;5091460;28;20032;-73
2022/11/30 06:16:12;;;;;;;11.85;7.07;;;;;;;;;;5092818;28;20115;-74
2022/11/30 06:18:39;;;;;;;11.45;7.22;;;;;;;;;;5092869;28;20504;-73
2022/11/30 06:21:08;;;;;;;10.82;6.10;;;;;;;;;;5092915;28;20097;-73
2022/11/30 06:23:36;;;;;;;11.40;6.50;;;;;;;;;;5091523;28;20083;-73
2022/11/30 06:26:05;;;;;;;13.85;6.90;;;;;;;;;;5093051;28;20047;-73
2022/11/30 06:28:32;;;;;;;11.90;6.88;;;;;;;;;;5092892;28;20044;-74
2022/11/30 06:31:00;;;;;;;9.60;5.53;;;;;;;;;;5091474;28;20520;-74
2022/11/30 06:33:28;;;;;;;10.07;6.45;;;;;;;;;;5092767;28;20082;-74
2022/11/30 06:35:56;;;;;;;10.82;6.07;;;;;;;;;;5092720;28;20716;-74
2022/11/30 06:38:24;;;;;;;11.85;7.00;;;;;;;;;;5091553;28;20502;-74
2022/11/30 06:40:52;;;;;;;8.40;5.05;;;;;;;;;;5092765;28;20113;-72
2022/11/30 06:43:20;;;;;;;9.63;5.60;;;;;;;;;;5092809;28;20528;-74
2022/11/30 06:45:47;;;;;;;11.77;6.35;;;;;;;;;;5092678;28;20101;-73
2022/11/30 06:48:15;;;;;;;10.60;5.95;;;;;;;;;;5092467;28;20070;-74
2022/11/30 06:50:42;;;;;;;10.73;5.97;;;;;;;;;;5092614;28;20071;-74
2022/11/30 06:53:16;;;;;;;12.27;6.40;;;;;;;;;;5095456;28;20040;-74
2022/11/30 06:55:43;;;;;;;11.95;5.80;;;;;;;;;;5096958;28;20032;-72
2022/11/30 06:58:11;;;;;;;20.10;8.18;;;;;;;;;;5096715;28;20048;-74
2022/11/30 07:00:38;;;;;;;11.25;6.03;;;;;;;;;;5096706;28;20089;-74
2022/11/30 07:03:06;;;;;;;17.90;7.50;;;;;;;;;;5096765;28;20047;-74
2022/11/30 07:05:35;;;;;;;10.57;5.78;;;;;;;;;;5096495;28;20040;-72
2022/11/30 07:08:03;;;;;;;9.52;5.53;;;;;;;;;;5096470;28;20067;-74
2022/11/30 07:10:30;;;;;;;9.50;5.07;;;;;;;;;;5095030;28;20036;-72
2022/11/30 07:12:58;;;;;;;11.15;6.25;;;;;;;;;;5067921;28;20038;-74
2022/11/30 07:15:25;;;;;;;10.55;6.72;;;;;;;;;;5030524;28;20046;-74
2022/11/30 07:17:53;;;;;;;11.07;5.95;;;;;;;;;;4993367;28;20072;-75
2022/11/30 07:20:20;;;;;;;14.60;6.57;;;;;;;;;;4993147;28;20052;-76
2022/11/30 07:22:47;;;;;;;15.05;6.72;;;;;;;;;;4992735;28;20054;-77
2022/11/30 07:28:01;;;;;;;23.40;8.30;;;;;;;;;;4992852;28;20108;-78
2022/11/30 07:30:30;;;;;;;15.27;7.80;;;;;;;;;;4993130;28;20042;-80
2022/11/30 07:32:58;;;;;;;15.05;7.80;;;;;;;;;;4993128;28;20129;-76
2022/11/30 07:35:25;;;;;;;13.50;8.13;;;;;;;;;;4993154;28;20043;-77
2022/11/30 07:37:53;;;;;;;13.30;7.05;;;;;;;;;;4991849;28;20054;-66
2022/11/30 07:40:20;;;;;;;16.35;8.95;;;;;;;;;;4992910;28;20550;-74
2022/11/30 07:42:48;;;;;;;9.60;5.70;;;;;;;;;;4993072;28;20450;-71
2022/11/30 07:45:15;;;;;;;10.95;5.40;;;;;;;;;;4993046;28;20034;-71
2022/11/30 07:47:43;;;;;;;16.92;7.95;;;;;;;;;;4992802;28;20076;-71
2022/11/30 07:50:10;;;;;;;10.10;5.97;;;;;;;;;;4992921;28;20085;-71
2022/11/30 07:52:38;;;;;;;9.95;6.20;;;;;;;;;;4992910;28;20481;-71
2022/11/30 07:55:05;;;;;;;7.68;4.85;;;;;;;;;;4992858;28;20167;-71
2022/11/30 07:57:33;;;;;;;9.20;5.03;;;;;;;;;;4992788;28;20095;-70
2022/11/30 08:00:00;;;;;;;8.35;5.35;;;;;;;;;;4992900;28;20045;-71
2022/11/30 08:02:38;;;;;;;9.13;4.43;;;;;;;;;;4992573;28;20057;-71
2022/11/30 08:05:06;;;;;;;10.00;6.13;;;;;;;;;;4991529;28;20034;-71
2022/11/30 08:07:33;;;;;;;9.23;5.47;;;;;;;;;;4992468;28;20046;-71
2022/11/30 08:10:01;;;;;;;9.63;5.50;;;;;;;;;;4992522;28;20122;-72
2022/11/30 08:12:28;;;;;;;10.38;6.15;;;;;;;;;;4992685;28;20088;-71
2022/11/30 08:14:56;;;;;;;8.75;5.63;;;;;;;;;;4992341;28;20042;-71
2022/11/30 08:17:43;;;;;;;8.60;5.40;;;;;;;;;;4992427;28;20054;-71
2022/11/30 08:20:11;;;;;;;9.30;5.40;;;;;;;;;;4992488;28;20430;-71
2022/11/30 08:22:38;;;;;;;9.23;5.50;;;;;;;;;;4993927;28;20046;-73
2022/11/30 08:25:07;;;;;;;11.43;6.35;;;;;;;;;;5011747;28;20111;-71
2022/11/30 08:27:34;;;;;;;7.70;5.40;;;;;;;;;;5011792;28;20095;-67
2022/11/30 08:30:01;;;;;;;11.18;6.60;;;;;;;;;;5008398;28;20141;-70
2022/11/30 08:32:29;;;;;;;11.20;6.43;;;;;;;;;;5002268;28;20048;-71
2022/11/30 08:34:56;;;;;;;7.68;4.93;;;;;;;;;;5006175;28;20046;-69
2022/11/30 08:37:24;;;;;;;10.48;4.75;;;;;;;;;;5011608;28;20065;-70
2022/11/30 08:39:52;;;;;;;11.48;6.90;;;;;;;;;;5011092;28;20086;-72
2022/11/30 08:42:19;;;;;;;10.82;6.55;;;;;;;;;;5011559;28;20038;-69
2022/11/30 08:44:46;;;;;;;8.43;5.05;;;;;;;;;;5010171;28;20064;-69
2022/11/30 08:47:14;;;;;;;12.20;6.68;;;;;;;;;;5010350;28;20095;-69
2022/11/30 08:49:42;;;;;;;8.88;4.82;;;;;;;;;;5011342;28;20145;-69
2022/11/30 08:52:09;;;;;;;8.32;5.05;;;;;;;;;;5011213;28;20065;-70
2022/11/30 08:54:45;;;;;;;9.60;5.15;;;;;;;;;;5010305;28;20533;-70
2022/11/30 08:57:15;;;;;;;11.35;5.57;;;;;;;;;;5011350;28;20042;-70
2022/11/30 08:59:42;;;;;;;10.35;6.93;;;;;;;;;;5009969;28;20099;-70
2022/11/30 09:02:12;;;;;;;9.40;5.30;;;;;;;;;;5011251;28;20095;-70
2022/11/30 09:04:39;;;;;;;6.85;4.50;;;;;;;;;;5011392;28;20138;-70
2022/11/30 09:07:08;;;;;;;8.25;5.07;;;;;;;;;;5004118;28;20038;-70
2022/11/30 09:09:36;;;;;;;8.27;5.53;;;;;;;;;;4995303;28;20072;-69
2022/11/30 09:12:04;;;;;;;8.20;5.00;;;;;;;;;;5001150;28;20095;-70
2022/11/30 09:14:31;;;;;;;7.43;4.72;;;;;;;;;;4999919;28;20042;-71
2022/11/30 09:16:59;;;;;;;7.90;4.95;;;;;;;;;;5007369;28;20034;-73
2022/11/30 09:19:26;;;;;;;6.40;4.10;;;;;;;;;;5009866;28;20054;-70
2022/11/30 09:21:54;;;;;;;6.78;4.55;;;;;;;;;;5008865;28;20098;-69
2022/11/30 09:24:21;;;;;;;9.18;5.22;;;;;;;;;;5010266;28;20073;-68
2022/11/30 09:26:48;;;;;;;11.07;6.50;;;;;;;;;;5010556;28;20049;-70
2022/11/30 09:29:16;;;;;;;8.50;5.68;;;;;;;;;;5010789;28;20387;-71
2022/11/30 09:31:44;;;;;;;10.65;5.30;;;;;;;;;;5009394;28;20561;-76
2022/11/30 09:34:11;;;;;;;5.68;3.85;;;;;;;;;;5010669;28;20436;-72
2022/11/30 09:36:39;;;;;;;7.30;4.85;;;;;;;;;;5010724;28;20053;-72
2022/11/30 09:39:06;;;;;;;6.30;4.20;;;;;;;;;;5010628;28;20518;-71
2022/11/30 09:41:34;;;;;;;6.68;4.32;;;;;;;;;;5009999;28;20041;-72
2022/11/30 09:44:14;;;;;;;8.40;5.82;;;;;;;;;;5001647;28;20435;-70
2022/11/30 09:46:44;;;;;;;7.90;5.00;;;;;;;;;;4998530;28;20094;-72
2022/11/30 09:49:17;;;;;;;9.80;6.13;;;;;;;;;;5009329;28;20521;-75
2022/11/30 09:51:46;;;;;;;7.18;4.38;;;;;;;;;;5010570;28;20041;-74
2022/11/30 09:54:36;;;;;;;9.80;5.47;;;;;;;;;;5009882;28;20387;-72
2022/11/30 09:57:23;;;;;;;9.93;6.05;;;;;;;;;;5010582;28;20041;-71
2022/11/30 09:59:59;;;;;;;12.73;7.75;;;;;;;;;;5007559;28;20042;-71
2022/11/30 10:02:30;;;;;;;8.18;4.90;;;;;;;;;;5010150;28;20048;-72
2022/11/30 10:04:58;;;;;;;8.20;4.90;;;;;;;;;;5010604;28;20040;-72
2022/11/30 10:07:26;;;;;;;8.98;4.78;;;;;;;;;;5010321;28;20087;-71
2022/11/30 10:10:09;;;;;;;8.57;4.97;;;;;;;;;;5009930;28;20046;-72
2022/11/30 10:13:15;;;;;;;8.40;4.57;;;;;;;;;;5010163;28;20419;-72
2022/11/30 10:15:53;;;;;;;8.25;5.60;;;;;;;;;;5009111;28;20044;-72
2022/11/30 10:18:39;;;;;;;8.10;5.38;;;;;;;;;;5010049;28;20038;-71
2022/11/30 10:21:07;;;;;;;10.70;6.40;;;;;;;;;;5010228;28;20069;-72
2022/11/30 10:23:44;;;;;;;7.65;5.43;;;;;;;;;;5009954;28;20050;-73
2022/11/30 10:26:15;;;;;;;6.70;4.28;;;;;;;;;;5008673;28;20491;-72
2022/11/30 10:28:51;;;;;;;6.47;4.57;;;;;;;;;;5009520;28;20549;-72
2022/11/30 10:31:20;;;;;;;7.03;4.07;;;;;;;;;;5010005;28;20040;-72
2022/11/30 10:33:48;;;;;;;6.32;4.43;;;;;;;;;;5009832;28;20103;-72
2022/11/30 10:36:21;;;;;;;8.20;5.32;;;;;;;;;;5009834;28;20064;-72
2022/11/30 10:38:52;;;;;;;8.27;5.40;;;;;;;;;;5008301;28;20045;-72
2022/11/30 10:41:57;;;;;;;10.35;5.80;;;;;;;;;;5009813;28;20348;-71
2022/11/30 10:44:33;;;;;;;10.98;5.90;;;;;;;;;;5050150;28;20793;-72
2022/11/30 10:47:04;;;;;;;11.13;5.93;;;;;;;;;;5033398;28;20433;-71
2022/11/30 10:49:32;;;;;;;8.05;5.43;;;;;;;;;;5026806;28;20050;-71
2022/11/30 10:52:05;;;;;;;14.48;5.85;;;;;;;;;;5009533;28;20042;-72
2022/11/30 10:54:34;;;;;;;6.43;5.05;;;;;;;;;;5009612;28;20121;-72
2022/11/30 10:57:02;;;;;;;6.72;4.90;;;;;;;;;;5009729;28;20048;-71
2022/11/30 10:59:46;;;;;;;8.13;5.20;;;;;;;;;;5009811;28;20038;-74
2022/11/30 11:02:32;;;;;;;7.15;5.68;;;;;;;;;;5009770;28;20129;-71
2022/11/30 11:05:20;;;;;;;8.02;4.97;;;;;;;;;;5008607;28;20124;-73
2022/11/30 11:07:49;;;;;;;8.63;5.80;;;;;;;;;;5015703;28;20052;-73
2022/11/30 11:10:37;;;;;;;8.32;5.30;;;;;;;;;;5009641;28;20050;-72
2022/11/30 11:13:05;;;;;;;7.07;4.65;;;;;;;;;;5011577;28;20062;-73
2022/11/30 11:15:33;;;;;;;7.10;4.72;;;;;;;;;;5009514;28;20072;-73
2022/11/30 11:18:16;;;;;;;6.07;4.25;;;;;;;;;;5009520;28;20398;-73
2022/11/30 11:20:44;;;;;;;7.00;3.90;;;;;;;;;;5009474;28;20085;-73
2022/11/30 11:23:30;;;;;;;8.27;5.00;;;;;;;;;;5009235;28;20050;-72
2022/11/30 11:25:58;;;;;;;7.75;4.90;;;;;;;;;;5009399;28;20038;-72
2022/11/30 11:28:25;;;;;;;12.05;6.18;;;;;;;;;;5008184;28;20503;-73
2022/11/30 11:30:54;;;;;;;7.28;4.30;;;;;;;;;;5008076;28;20442;-72
2022/11/30 11:33:23;;;;;;;7.72;4.55;;;;;;;;;;5009496;28;20046;-73
2022/11/30 11:35:55;;;;;;;8.85;5.15;;;;;;;;;;5008003;28;20042;-72
2022/11/30 11:38:27;;;;;;;12.65;5.93;;;;;;;;;;5010184;28;20061;-73
2022/11/30 11:40:59;;;;;;;7.95;4.20;;;;;;;;;;5012650;28;20471;-72
2022/11/30 11:43:28;;;;;;;9.82;4.95;;;;;;;;;;5012927;28;20065;-73
2022/11/30 11:45:59;;;;;;;10.80;5.03;;;;;;;;;;5011191;28;20107;-73
2022/11/30 11:48:33;;;;;;;7.10;3.90;;;;;;;;;;5012435;28;20049;-72
2022/11/30 11:51:03;;;;;;;5.15;3.70;;;;;;;;;;5012412;28;20053;-72
2022/11/30 11:53:43;;;;;;;10.40;4.72;;;;;;;;;;5012436;28;20060;-72
2022/11/30 11:56:30;;;;;;;7.55;4.07;;;;;;;;;;5012654;28;20046;-72
2022/11/30 11:59:12;;;;;;;7.30;4.82;;;;;;;;;;5012669;28;20044;-72
2022/11/30 12:01:43;;;;;;;7.47;5.13;;;;;;;;;;5012492;28;20064;-72
2022/11/30 12:04:23;;;;;;;8.70;4.80;;;;;;;;;;5012154;28;20069;-71
2022/11/30 12:06:52;;;;;;;9.52;5.00;;;;;;;;;;5012067;28;20042;-72
2022/11/30 12:09:25;;;;;;;8.07;4.60;;;;;;;;;;5012231;28;20125;-72
2022/11/30 12:11:52;;;;;;;6.43;4.50;;;;;;;;;;5012105;28;20052;-72
2022/11/30 12:14:20;;;;;;;6.10;4.10;;;;;;;;;;5012039;28;20042;-73
2022/11/30 12:16:50;;;;;;;5.95;4.35;;;;;;;;;;5012102;28;20133;-71
2022/11/30 12:19:33;;;;;;;8.10;5.10;;;;;;;;;;5011936;28;20037;-72
2022/11/30 12:22:27;;;;;;;7.18;4.22;;;;;;;;;;5010709;28;20450;-74
2022/11/30 12:25:00;;;;;;;4.82;3.58;;;;;;;;;;5010899;28;20316;-73
2022/11/30 12:27:35;;;;;;;7.13;4.78;;;;;;;;;;5011870;28;20146;-73
2022/11/30 12:30:08;;;;;;;7.70;5.47;;;;;;;;;;5012142;28;20054;-72
2022/11/30 12:32:39;;;;;;;6.88;4.28;;;;;;;;;;5011871;28;20071;-72
2022/11/30 12:35:09;;;;;;;6.53;4.22;;;;;;;;;;5011922;28;20041;-73
2022/11/30 12:38:03;;;;;;;7.20;4.68;;;;;;;;;;5011617;28;20106;-72
2022/11/30 12:40:31;;;;;;;6.20;4.57;;;;;;;;;;5026422;28;20069;-72
2022/11/30 12:43:01;;;;;;;7.45;5.20;;;;;;;;;;5011685;28;20075;-72
2022/11/30 12:45:40;;;;;;;9.13;5.20;;;;;;;;;;5011600;28;20049;-73
2022/11/30 12:48:08;;;;;;;7.85;5.85;;;;;;;;;;5011564;28;20046;-72
2022/11/30 12:50:56;;;;;;;13.20;6.47;;;;;;;;;;5010989;28;20042;-73
2022/11/30 12:53:29;;;;;;;9.43;6.30;;;;;;;;;;5010959;28;20042;-73
2022/11/30 12:55:57;;;;;;;7.30;4.90;;;;;;;;;;5009752;28;20053;-73
2022/11/30 12:58:36;;;;;;;6.45;4.75;;;;;;;;;;5010025;28;20050;-74
2022/11/30 13:01:20;;;;;;;9.05;5.45;;;;;;;;;;5010971;28;20042;-74
2022/11/30 13:03:56;;;;;;;11.05;6.55;;;;;;;;;;5010942;28;20429;-74
2022/11/30 13:06:30;;;;;;;9.23;5.72;;;;;;;;;;5010635;28;20099;-76
2022/11/30 13:09:03;;;;;;;14.68;9.20;;;;;;;;;;5010389;28;20541;-77
2022/11/30 13:11:36;;;;;;;13.60;9.90;;;;;;;;;;5011128;28;20045;-76
2022/11/30 13:14:06;;;;;;;10.65;6.22;;;;;;;;;;5010542;28;20046;-74
2022/11/30 13:16:34;;;;;;;8.88;5.60;;;;;;;;;;5007832;28;20064;-73
2022/11/30 13:19:10;;;;;;;10.68;6.55;;;;;;;;;;4997536;28;20046;-74
2022/11/30 13:21:41;;;;;;;6.97;4.32;;;;;;;;;;5011041;28;20038;-76
2022/11/30 13:24:18;;;;;;;21.05;9.10;;;;;;;;;;5010813;28;20125;-73
2022/11/30 13:26:56;;;;;;;11.30;6.13;;;;;;;;;;5001556;28;20068;-74
2022/11/30 13:29:24;;;;;;;11.30;5.72;;;;;;;;;;5001581;28;20076;-73
2022/11/30 13:32:07;;;;;;;8.48;5.45;;;;;;;;;;5000012;28;20117;-71
2022/11/30 13:35:15;;;;;;;6.93;4.45;;;;;;;;;;4994222;28;20499;-70
2022/11/30 13:37:42;;;;;;;10.18;6.63;;;;;;;;;;4990970;28;20480;-69
2022/11/30 13:40:21;;;;;;;14.27;8.73;;;;;;;;;;4991395;28;20042;-75
2022/11/30 13:42:54;;;;;;;11.07;6.43;;;;;;;;;;4999254;28;20034;-71
2022/11/30 13:45:27;;;;;;;10.95;6.30;;;;;;;;;;5071444;28;20450;-74
2022/11/30 13:47:55;;;;;;;9.15;5.13;;;;;;;;;;5061351;28;20042;-77
2022/11/30 13:50:26;;;;;;;11.70;7.68;;;;;;;;;;4991271;28;20062;-75
2022/11/30 13:53:02;;;;;;;11.32;6.65;;;;;;;;;;4990818;28;20601;-74
2022/11/30 13:55:42;;;;;;;11.10;6.43;;;;;;;;;;4989336;28;20380;-69
2022/11/30 13:58:10;;;;;;;12.90;7.70;;;;;;;;;;4990801;28;20057;-77
2022/11/30 14:00:39;;;;;;;18.80;9.35;;;;;;;;;;4989550;28;20068;-74
2022/11/30 14:03:22;;;;;;;12.57;7.40;;;;;;;;;;4989677;28;20054;-73
2022/11/30 14:06:26;;;;;;;9.80;5.53;;;;;;;;;;4989596;28;20049;-76
2022/11/30 14:08:55;;;;;;;14.10;8.85;;;;;;;;;;4993238;28;20393;-79
2022/11/30 14:11:34;;;;;;;12.68;8.13;;;;;;;;;;4989261;28;20047;-78
2022/11/30 14:14:21;;;;;;;15.07;9.35;;;;;;;;;;4990843;28;20050;-76
2022/11/30 14:16:48;;;;;;;20.02;11.15;;;;;;;;;;4990829;28;20051;-72
2022/11/30 14:19:16;;;;;;;17.60;9.25;;;;;;;;;;4990711;28;20047;-72
2022/11/30 14:21:44;;;;;;;17.05;11.05;;;;;;;;;;4990659;28;20046;-72
2022/11/30 14:24:17;;;;;;;12.82;7.63;;;;;;;;;;4990524;28;20137;-72
2022/11/30 14:26:46;;;;;;;15.05;9.80;;;;;;;;;;4990574;28;20057;-74
2022/11/30 14:29:15;;;;;;;13.50;7.90;;;;;;;;;;4990220;28;20129;-72
2022/11/30 14:31:52;;;;;;;11.23;6.63;;;;;;;;;;4990442;28;20449;-76
2022/11/30 14:34:28;;;;;;;14.30;7.85;;;;;;;;;;4989233;28;20046;-73
2022/11/30 14:36:59;;;;;;;12.93;7.97;;;;;;;;;;4990276;28;20092;-70
2022/11/30 14:39:31;;;;;;;16.05;8.48;;;;;;;;;;4990753;28;20049;-71
2022/11/30 14:41:59;;;;;;;15.57;8.60;;;;;;;;;;5002675;28;20046;-73
2022/11/30 14:44:27;;;;;;;15.77;8.13;;;;;;;;;;5039283;28;20123;-70
2022/11/30 14:46:54;;;;;;;15.88;8.73;;;;;;;;;;5094103;28;20040;-70
2022/11/30 14:49:23;;;;;;;11.68;7.07;;;;;;;;;;5095271;28;20131;-72
2022/11/30 14:51:52;;;;;;;15.82;8.50;;;;;;;;;;5092189;28;20051;-74
2022/11/30 14:54:38;;;;;;;10.95;7.50;;;;;;;;;;5092568;28;20106;-74